»·PEaware :: AAL243 KLAS-KSAN

AAL243 :: KLAS-KSAN

FLIGHT INFORMATION

Flight Status: Arrived
Operator:
American Airlines
More flights by this operator :: More flights under this callsign
Pilot: Tatianna C. (7783)
Aircraft: AIRBUS A320
(A320)
More flights by this aircraft type
Origin: KLAS McCarran Intl
United States
Destination: KSAN San Diego Intl-Lindbergh
United States
More flights between these airports :: More routes between these airports
Route: BOACH8 LVELL LUCKI1
File this flight plan on PilotEdge
Remarks:
Altitude:
(Current/Filed)
34,000ft
Speed:
(Current/Filed)
450kts
Departed: 02-Nov-17 08:16 PM
Arrived: 02-Nov-17 09:04 PM
Distance/Time
Traveled:
225nm/0:47
Distance/Time
To Go:
Arrived

Flight Plot

Page will automatically refresh every two minutes.

Flight plan parsing failed; only flown route is shown


Map Options




Map Legend


Flown Route
Filed Route
Departure Airport
Arrival Airport
Navaid (VOR, NDB)
Fix

Horizontal Profiles

Position Reports

Time Latitude Longitude Heading Altitude Ground
Speed
02-Nov-17 19:57 36.080734 -115.138569 314 2120ft 0kts
02-Nov-17 19:58 36.080734 -115.138569 314 2120ft 0kts
02-Nov-17 19:59 36.080734 -115.138569 314 2120ft 0kts
02-Nov-17 20:00 36.080734 -115.138569 314 2120ft 0kts
02-Nov-17 20:01 36.080734 -115.138569 314 2120ft 0kts
02-Nov-17 20:02 36.080734 -115.138569 314 2120ft 0kts
02-Nov-17 20:03 36.080734 -115.138569 314 2120ft 0kts
02-Nov-17 20:04 36.080734 -115.138569 314 2120ft 0kts
02-Nov-17 20:05 36.080734 -115.138569 314 2120ft 0kts
02-Nov-17 20:06 36.080734 -115.138569 314 2120ft 0kts
02-Nov-17 20:07 36.080734 -115.138569 314 2120ft 0kts
02-Nov-17 20:08 36.080734 -115.138569 314 2120ft 0kts
02-Nov-17 20:09 36.080734 -115.138569 314 2120ft 0kts
02-Nov-17 20:10 36.080734 -115.138569 314 2120ft 0kts
02-Nov-17 20:11 36.080554 -115.138343 314 2120ft 2kts
02-Nov-17 20:12 36.080209 -115.137755 291 2120ft 2kts
02-Nov-17 20:13 36.080138 -115.137425 281 2120ft 0kts
02-Nov-17 20:14 36.080138 -115.137425 281 2120ft 0kts
02-Nov-17 20:15 36.078914 -115.139392 218 2120ft 10kts
02-Nov-17 20:16 36.078259 -115.136636 89 2120ft 11kts
02-Nov-17 20:17 36.078275 -115.132026 90 2120ft 15kts
02-Nov-17 20:18 36.078281 -115.126198 90 2120ft 17kts
02-Nov-17 20:19 36.077960 -115.122225 133 2120ft 8kts
02-Nov-17 20:20 36.077289 -115.121340 150 2120ft 8kts
02-Nov-17 20:21 36.076370 -115.137191 270 2121ft 159kts
02-Nov-17 20:22 36.076927 -115.195087 267 4659ft 187kts
02-Nov-17 20:23 36.060424 -115.259763 210 6693ft 227kts
02-Nov-17 20:24 35.993117 -115.291820 200 8965ft 281kts
02-Nov-17 20:25 35.913817 -115.308570 185 11361ft 319kts
02-Nov-17 20:26 35.820999 -115.311004 177 13745ft 343kts
02-Nov-17 20:27 35.725013 -115.300001 178 16124ft 353kts
02-Nov-17 20:28 35.626330 -115.296780 185 18241ft 361kts
02-Nov-17 20:29 35.524921 -115.300797 185 20146ft 371kts
02-Nov-17 20:30 35.420740 -115.304915 185 21870ft 380kts
02-Nov-17 20:31 35.314194 -115.309118 186 23408ft 389kts
02-Nov-17 20:32 35.205230 -115.313402 186 24831ft 397kts
02-Nov-17 20:33 35.093851 -115.317770 186 26124ft 405kts
02-Nov-17 20:34 34.980649 -115.322199 186 27300ft 413kts
02-Nov-17 20:35 34.869397 -115.326540 187 28343ft 420kts
02-Nov-17 20:36 34.754601 -115.342528 204 29333ft 416kts
02-Nov-17 20:37 34.645669 -115.390250 204 30270ft 421kts
02-Nov-17 20:38 34.535419 -115.438368 204 31397ft 419kts
02-Nov-17 20:39 34.426801 -115.485675 204 32482ft 415kts
02-Nov-17 20:40 34.319937 -115.534771 212 33525ft 406kts
02-Nov-17 20:41 34.224165 -115.604500 214 34216ft 404kts
02-Nov-17 20:42 34.122725 -115.656261 206 34213ft 407kts
02-Nov-17 20:43 34.022197 -115.703679 206 34107ft 404kts
02-Nov-17 20:44 33.920480 -115.751480 206 32539ft 385kts
02-Nov-17 20:45 33.825263 -115.798173 207 30887ft 371kts
02-Nov-17 20:46 33.731186 -115.843568 206 29117ft 360kts
02-Nov-17 20:47 33.640135 -115.886074 205 27488ft 346kts
02-Nov-17 20:48 33.552729 -115.926867 205 25901ft 331kts
02-Nov-17 20:49 33.486907 -115.993281 235 24316ft 308kts
02-Nov-17 20:50 33.439187 -116.075395 235 22872ft 294kts
02-Nov-17 20:51 33.392782 -116.155162 235 21163ft 289kts
02-Nov-17 20:52 33.347987 -116.232009 236 19787ft 277kts
02-Nov-17 20:53 33.282669 -116.282306 210 18470ft 306kts
02-Nov-17 20:54 33.204348 -116.328145 209 16678ft 314kts
02-Nov-17 20:55 33.126973 -116.373333 209 15482ft 308kts
02-Nov-17 20:56 33.050491 -116.417968 208 13973ft 304kts
02-Nov-17 20:57 32.980628 -116.469387 221 12506ft 291kts
02-Nov-17 20:58 32.920114 -116.530457 220 11068ft 283kts
02-Nov-17 20:59 32.861259 -116.589746 220 9863ft 274kts
02-Nov-17 21:00 32.813370 -116.637950 220 8853ft 268kts
02-Nov-17 21:01 32.758481 -116.710567 240 7409ft 266kts
02-Nov-17 21:02 32.728309 -116.774275 240 6367ft 267kts
02-Nov-17 21:03 32.697586 -116.849935 249 5679ft 244kts
02-Nov-17 21:04 32.674826 -116.925069 252 4678ft 240kts
02-Nov-17 21:05 32.689856 -117.009965 286 3824ft 218kts
02-Nov-17 21:06 32.703324 -117.064654 286 2933ft 190kts
02-Nov-17 21:07 32.718611 -117.128632 286 1382ft 163kts
02-Nov-17 21:08 32.728927 -117.170495 286 268ft 152kts
02-Nov-17 21:09 32.734989 -117.198624 247 21ft 0kts
02-Nov-17 21:10 32.734116 -117.199674 192 21ft 13kts
02-Nov-17 21:11 32.733418 -117.200768 263 20ft 0kts
02-Nov-17 21:12 32.733418 -117.200768 263 20ft 0kts
02-Nov-17 21:13 32.733418 -117.200768 263 20ft 0kts
02-Nov-17 21:14 32.733418 -117.200768 263 20ft 0kts

Navigation Log

Ident Type
Flight plan parsing failed, navigation log unavailable